createdAt,value
2017-03-09T00:00:17.003Z,733.18
2017-03-09T00:01:16.985Z,733.25
2017-03-09T00:02:16.964Z,733.48
2017-03-09T00:03:16.944Z,733.24
2017-03-09T00:04:16.930Z,733.01
2017-03-09T00:05:16.909Z,733.31
2017-03-09T00:06:16.890Z,733.35
2017-03-09T00:07:16.866Z,733.24
2017-03-09T00:08:16.848Z,732.83
2017-03-09T00:09:16.829Z,732.93
2017-03-09T00:10:16.811Z,733.15
2017-03-09T00:11:16.789Z,733.21
2017-03-09T00:12:16.774Z,733.06
2017-03-09T00:13:16.754Z,733.17
2017-03-09T00:14:16.733Z,732.98
2017-03-09T00:15:16.711Z,733
2017-03-09T00:16:16.695Z,732.98
2017-03-09T00:17:16.675Z,733.11
2017-03-09T00:18:16.650Z,733.24
2017-03-09T00:19:16.633Z,732.97
2017-03-09T00:20:16.612Z,733.16
2017-03-09T00:21:16.594Z,733.36
2017-03-09T00:22:16.576Z,732.84
2017-03-09T00:23:16.557Z,732.73
2017-03-09T00:24:16.533Z,733.13
2017-03-09T00:25:16.517Z,733
2017-03-09T00:26:16.499Z,733.27
2017-03-09T00:27:16.479Z,733.02
2017-03-09T00:28:16.455Z,732.86
2017-03-09T00:29:16.435Z,732.97
2017-03-09T00:30:16.420Z,733.09
2017-03-09T00:31:16.396Z,732.76
2017-03-09T00:32:16.377Z,733.06
2017-03-09T00:33:16.360Z,732.83
2017-03-09T00:34:16.341Z,733.14
2017-03-09T00:35:16.316Z,733.16
2017-03-09T00:36:16.298Z,733.07
2017-03-09T00:37:16.278Z,733.05
2017-03-09T00:38:16.263Z,733.08
2017-03-09T00:39:16.239Z,732.93
2017-03-09T00:40:16.218Z,732.73
2017-03-09T00:41:16.199Z,732.96
2017-03-09T00:42:16.183Z,733.01
2017-03-09T00:43:16.158Z,733
2017-03-09T00:44:16.145Z,733.12
2017-03-09T00:45:16.120Z,733.01
2017-03-09T00:46:16.100Z,733.32
2017-03-09T00:47:16.085Z,733.16
2017-03-09T00:48:16.066Z,733.11
2017-03-09T00:49:16.046Z,733.12
2017-03-09T00:50:16.023Z,732.99
2017-03-09T00:51:16.008Z,733.03
2017-03-09T00:52:15.984Z,732.76
2017-03-09T00:53:15.970Z,732.76
2017-03-09T00:54:15.946Z,732.93
2017-03-09T00:55:15.926Z,732.94
2017-03-09T00:56:15.907Z,733.12
2017-03-09T00:57:15.891Z,733.31
2017-03-09T00:58:15.871Z,732.96
2017-03-09T00:59:15.848Z,733.03
2017-03-09T01:00:15.834Z,733.14
2017-03-09T01:01:15.814Z,732.37
2017-03-09T01:02:15.794Z,732.59
2017-03-09T01:03:15.770Z,732.91
2017-03-09T01:04:15.750Z,733.11
2017-03-09T01:05:15.734Z,732.82
2017-03-09T01:06:15.714Z,733.11
2017-03-09T01:07:15.692Z,733.31
2017-03-09T01:08:15.675Z,732.93
2017-03-09T01:09:15.651Z,732.92
2017-03-09T01:10:15.632Z,733.09
2017-03-09T01:11:15.615Z,732.96
2017-03-09T01:12:15.596Z,732.93
2017-03-09T01:13:15.573Z,732.79
2017-03-09T01:14:15.553Z,732.57
2017-03-09T01:15:15.534Z,732.76
2017-03-09T01:16:15.518Z,733.01
2017-03-09T01:17:15.498Z,732.13
2017-03-09T01:18:15.475Z,732.68
2017-03-09T01:19:15.458Z,732.92
2017-03-09T01:20:15.435Z,733.02
2017-03-09T01:21:15.419Z,732.82
2017-03-09T01:22:15.395Z,732.83
2017-03-09T01:23:15.378Z,733.09
2017-03-09T01:24:15.356Z,732.97
2017-03-09T01:25:15.336Z,732.59
2017-03-09T01:26:15.317Z,732.7
2017-03-09T01:27:15.296Z,732.76
2017-03-09T01:28:15.276Z,732.83
2017-03-09T01:29:15.258Z,732.61
2017-03-09T01:30:15.240Z,732.86
2017-03-09T01:31:15.218Z,733
2017-03-09T01:32:15.199Z,733.11
2017-03-09T01:33:15.183Z,732.86
2017-03-09T01:34:15.158Z,732.83
2017-03-09T01:35:15.138Z,733.11
2017-03-09T01:36:15.119Z,733.11
2017-03-09T01:37:15.101Z,732.83
2017-03-09T01:38:15.085Z,732.79
2017-03-09T01:39:15.063Z,732.76
2017-03-09T01:40:15.046Z,732.76
2017-03-09T01:41:15.026Z,732.77
2017-03-09T01:42:15.006Z,732.61
2017-03-09T01:43:14.987Z,732.95
2017-03-09T01:44:14.963Z,732.87
2017-03-09T01:45:14.944Z,732.66
2017-03-09T01:46:14.924Z,732.65
2017-03-09T01:47:14.908Z,733.02
2017-03-09T01:48:14.884Z,732.84
2017-03-09T01:49:14.869Z,732.86
2017-03-09T01:50:14.850Z,732.3
2017-03-09T01:51:14.826Z,732.05
2017-03-09T01:52:14.805Z,732.84
2017-03-09T01:53:14.786Z,732.79
2017-03-09T01:54:14.768Z,732.83
2017-03-09T01:55:14.752Z,732.62
2017-03-09T01:56:14.727Z,732.92
2017-03-09T01:57:14.709Z,732.83
2017-03-09T01:58:14.689Z,732.7
2017-03-09T01:59:14.669Z,732.77
2017-03-09T02:00:14.653Z,732.65
2017-03-09T02:01:14.630Z,732.92
2017-03-09T02:02:14.614Z,732.65
2017-03-09T02:03:14.594Z,732.63
2017-03-09T02:04:14.575Z,733.03
2017-03-09T02:05:14.556Z,732.67
2017-03-09T02:06:14.533Z,732.99
2017-03-09T02:07:14.512Z,732.96
2017-03-09T02:08:14.493Z,732.39
2017-03-09T02:09:14.479Z,732.36
2017-03-09T02:10:14.457Z,732.35
2017-03-09T02:11:14.433Z,732.66
2017-03-09T02:12:14.412Z,732.86
2017-03-09T02:13:14.394Z,732.83
2017-03-09T02:14:14.375Z,732.74
2017-03-09T02:15:14.354Z,732.65
2017-03-09T02:16:14.339Z,732.73
2017-03-09T02:17:14.323Z,732.83
2017-03-09T02:18:14.295Z,732.69
2017-03-09T02:19:14.275Z,732.87
2017-03-09T02:20:14.257Z,732.66
2017-03-09T02:21:14.235Z,732.71
2017-03-09T02:22:14.220Z,732.97
2017-03-09T02:23:14.201Z,732.82
2017-03-09T02:24:14.181Z,732.97
2017-03-09T02:25:14.156Z,733.03
2017-03-09T02:26:14.140Z,732.57
2017-03-09T02:27:14.117Z,732.7
2017-03-09T02:28:14.101Z,732.7
2017-03-09T02:29:14.077Z,732.95
2017-03-09T02:30:14.062Z,733.01
2017-03-09T02:31:14.042Z,732.88
2017-03-09T02:32:14.017Z,733.01
2017-03-09T02:33:13.998Z,732.66
2017-03-09T02:34:13.979Z,733.03
2017-03-09T02:35:13.959Z,732.51
2017-03-09T02:36:13.940Z,733.02
2017-03-09T02:37:13.920Z,732.59
2017-03-09T02:38:13.904Z,732.57
2017-03-09T02:39:13.885Z,732.72
2017-03-09T02:40:13.860Z,732.94
2017-03-09T02:41:13.840Z,733.01
2017-03-09T02:42:13.825Z,733.21
2017-03-09T02:43:13.801Z,733.02
2017-03-09T02:44:13.785Z,732.58
2017-03-09T02:45:13.762Z,732.64
2017-03-09T02:46:13.747Z,732.8
2017-03-09T02:47:13.726Z,732.86
2017-03-09T02:48:13.707Z,733.24
2017-03-09T02:49:13.683Z,732.79
2017-03-09T02:50:13.664Z,732.8
2017-03-09T02:51:13.651Z,732.87
2017-03-09T02:52:13.628Z,732.86
2017-03-09T02:53:13.609Z,733.2
2017-03-09T02:54:13.589Z,733.33
2017-03-09T02:55:13.568Z,733.19
2017-03-09T02:56:13.550Z,733.24
2017-03-09T02:57:13.527Z,732.47
2017-03-09T02:58:13.511Z,732.89
2017-03-09T02:59:13.488Z,732.98
2017-03-09T03:00:13.469Z,733.15
2017-03-09T03:01:13.452Z,733
2017-03-09T03:02:13.429Z,732.69
2017-03-09T03:03:13.410Z,732.95
2017-03-09T03:04:13.395Z,733.13
2017-03-09T03:05:13.375Z,733.12
2017-03-09T03:06:13.356Z,733.26
2017-03-09T03:07:13.337Z,732.96
2017-03-09T03:08:13.318Z,732.58
2017-03-09T03:09:13.298Z,732.95
2017-03-09T03:10:13.274Z,732.72
2017-03-09T03:11:13.255Z,733.03
2017-03-09T03:12:13.258Z,732.76
2017-03-09T03:13:13.217Z,732.74
2017-03-09T03:14:13.199Z,732.86
2017-03-09T03:15:13.180Z,732.94
2017-03-09T03:16:13.161Z,732.92
2017-03-09T03:17:13.139Z,732.91
2017-03-09T03:18:13.124Z,733.02
2017-03-09T03:19:13.105Z,733.04
2017-03-09T03:20:13.085Z,732.86
2017-03-09T03:21:13.061Z,733.02
2017-03-09T03:22:13.046Z,732.63
2017-03-09T03:23:13.025Z,733.1
2017-03-09T03:24:13.001Z,733.25
2017-03-09T03:25:12.988Z,732.87
2017-03-09T03:26:12.964Z,732.97
2017-03-09T03:27:12.947Z,733.2
2017-03-09T03:28:12.926Z,733.17
2017-03-09T03:29:12.907Z,733.05
2017-03-09T03:30:12.889Z,732.74
2017-03-09T03:31:12.867Z,733.08
2017-03-09T03:32:12.848Z,733.21
2017-03-09T03:33:12.832Z,732.99
2017-03-09T03:34:12.813Z,732.96
2017-03-09T03:35:12.790Z,732.73
2017-03-09T03:36:12.775Z,732.32
2017-03-09T03:37:12.755Z,732.58
2017-03-09T03:38:12.732Z,732.46
2017-03-09T03:39:12.719Z,732.82
2017-03-09T03:40:12.693Z,733.07
2017-03-09T03:41:12.673Z,732.87
2017-03-09T03:42:12.654Z,732.91
2017-03-09T03:43:12.635Z,732.44
2017-03-09T03:44:12.620Z,732.93
2017-03-09T03:45:12.599Z,732.95
2017-03-09T03:46:12.580Z,732.85
2017-03-09T03:47:12.561Z,732.89
2017-03-09T03:48:12.538Z,732.86
2017-03-09T03:49:12.522Z,732.77
2017-03-09T03:50:12.502Z,733.21
2017-03-09T03:51:12.479Z,733.18
2017-03-09T03:52:12.459Z,732.93
2017-03-09T03:53:12.444Z,732.26
2017-03-09T03:54:12.424Z,732.37
2017-03-09T03:55:12.405Z,732.74
2017-03-09T03:56:12.380Z,733.1
2017-03-09T03:57:12.365Z,733.02
2017-03-09T03:58:12.347Z,733.15
2017-03-09T03:59:12.323Z,733.03
2017-03-09T04:00:12.307Z,733.01
2017-03-09T04:01:12.287Z,732.7
2017-03-09T04:02:12.268Z,732.88
2017-03-09T04:03:12.245Z,732.87
2017-03-09T04:04:12.224Z,733.06
2017-03-09T04:05:12.210Z,732.84
2017-03-09T04:06:12.186Z,732.94
2017-03-09T04:07:12.173Z,732.21
2017-03-09T04:08:12.151Z,732.52
2017-03-09T04:09:12.132Z,732.61
2017-03-09T04:10:12.113Z,732.87
2017-03-09T04:11:12.092Z,732.78
2017-03-09T04:12:12.069Z,732.69
2017-03-09T04:13:12.053Z,732.73
2017-03-09T04:14:12.034Z,732.98
2017-03-09T04:15:12.010Z,732.62
2017-03-09T04:16:11.995Z,732.91
2017-03-09T04:17:11.976Z,732.53
2017-03-09T04:18:11.955Z,732.77
2017-03-09T04:19:11.932Z,733.05
2017-03-09T04:20:11.912Z,733.08
2017-03-09T04:21:11.893Z,733.04
2017-03-09T04:22:11.876Z,733.19
2017-03-09T04:23:11.857Z,733.16
2017-03-09T04:24:11.838Z,733.3
2017-03-09T04:25:11.815Z,732.77
2017-03-09T04:26:11.798Z,732.28
2017-03-09T04:27:11.779Z,733.03
2017-03-09T04:28:11.757Z,733.19
2017-03-09T04:29:11.737Z,733.04
2017-03-09T04:30:11.721Z,733.12
2017-03-09T04:31:11.700Z,732.96
2017-03-09T04:32:11.678Z,733.31
2017-03-09T04:33:11.662Z,733.08
2017-03-09T04:34:11.643Z,733.02
2017-03-09T04:35:11.624Z,733.08
2017-03-09T04:36:11.601Z,733.02
2017-03-09T04:37:11.583Z,733.15
2017-03-09T04:38:11.561Z,733.07
2017-03-09T04:39:11.547Z,733.14
2017-03-09T04:40:11.527Z,733.16
2017-03-09T04:41:11.504Z,733.15
2017-03-09T04:42:11.488Z,732.99
2017-03-09T04:43:11.465Z,733.03
2017-03-09T04:44:11.449Z,733.06
2017-03-09T04:45:11.430Z,733.21
2017-03-09T04:46:11.407Z,733.2
2017-03-09T04:47:11.392Z,733.15
2017-03-09T04:48:11.367Z,733.1
2017-03-09T04:49:11.354Z,733.02
2017-03-09T04:50:11.334Z,733.15
2017-03-09T04:51:11.311Z,733.21
2017-03-09T04:52:11.296Z,733.29
2017-03-09T04:53:11.273Z,733.29
2017-03-09T04:54:11.253Z,733.21
2017-03-09T04:55:11.236Z,733.28
2017-03-09T04:56:11.214Z,733.15
2017-03-09T04:57:11.199Z,733.22
2017-03-09T04:58:11.175Z,733.26
2017-03-09T04:59:11.160Z,733.13
2017-03-09T05:00:11.141Z,733.28
2017-03-09T05:01:11.118Z,733.49
2017-03-09T05:02:11.102Z,733.35
2017-03-09T05:03:11.079Z,733.4
2017-03-09T05:04:11.060Z,733.3
2017-03-09T05:05:11.041Z,733.25
2017-03-09T05:06:11.025Z,733.39
2017-03-09T05:07:11.007Z,732.98
2017-03-09T05:08:10.983Z,733.12
2017-03-09T05:09:10.967Z,733.24
2017-03-09T05:10:10.944Z,733.16
2017-03-09T05:11:10.929Z,733.32
2017-03-09T05:12:10.910Z,733.42
2017-03-09T05:13:10.886Z,733.51
2017-03-09T05:14:10.867Z,733.58
2017-03-09T05:15:10.848Z,733.38
2017-03-09T05:16:10.833Z,733.45
2017-03-09T05:17:10.809Z,733.45
2017-03-09T05:18:10.791Z,733.41
2017-03-09T05:19:10.775Z,733.48
2017-03-09T05:20:10.756Z,733.54
2017-03-09T05:21:10.737Z,733.52
2017-03-09T05:22:10.714Z,733.36
2017-03-09T05:23:10.699Z,733.23
2017-03-09T05:24:10.676Z,733.3
2017-03-09T05:25:10.661Z,733.38
2017-03-09T05:26:10.638Z,733.4
2017-03-09T05:27:10.619Z,733.46
2017-03-09T05:28:10.599Z,733.57
2017-03-09T05:29:10.585Z,733.49
2017-03-09T05:30:10.562Z,733.4
2017-03-09T05:31:10.546Z,733.71
2017-03-09T05:32:10.524Z,733.36
2017-03-09T05:33:10.505Z,733.23
2017-03-09T05:34:10.486Z,733.39
2017-03-09T05:35:10.472Z,733.34
2017-03-09T05:36:10.453Z,733.36
2017-03-09T05:37:10.442Z,733.46
2017-03-09T05:38:10.416Z,733.21
2017-03-09T05:39:10.392Z,733.3
2017-03-09T05:40:10.374Z,733.3
2017-03-09T05:41:10.358Z,733.52
2017-03-09T05:43:10.316Z,733.44
2017-03-09T05:44:10.504Z,733.5
2017-03-09T05:45:10.284Z,733.39
2017-03-09T05:46:10.264Z,733.37
2017-03-09T05:47:10.246Z,733.53
2017-03-09T05:48:10.228Z,733.41
2017-03-09T05:49:10.209Z,733.47
2017-03-09T05:50:10.189Z,733.58
2017-03-09T05:51:10.171Z,733.55
2017-03-09T05:52:10.153Z,733.45
2017-03-09T05:53:10.133Z,733.43
2017-03-09T05:54:10.111Z,733.49
2017-03-09T05:55:10.097Z,733.67
2017-03-09T05:56:10.077Z,733.72
2017-03-09T05:57:10.058Z,733.61
2017-03-09T05:58:10.036Z,733.5
2017-03-09T05:59:10.018Z,733.46
2017-03-09T06:00:10.000Z,733.35
2017-03-09T06:01:09.980Z,733.55
2017-03-09T06:02:09.962Z,733.73
2017-03-09T06:03:09.970Z,733.74
2017-03-09T06:04:09.924Z,733.58
2017-03-09T06:05:09.906Z,733.3
2017-03-09T06:06:09.888Z,733.52
2017-03-09T06:07:09.869Z,733.69
2017-03-09T06:08:09.850Z,733.77
2017-03-09T06:09:09.835Z,733.86
2017-03-09T06:10:09.816Z,733.58
2017-03-09T06:11:09.795Z,733.56
2017-03-09T06:12:09.978Z,733.49
2017-03-09T06:13:09.762Z,733.49
2017-03-09T06:14:09.742Z,733.79
2017-03-09T06:15:09.721Z,733.68
2017-03-09T06:16:09.705Z,733.79
2017-03-09T06:17:09.682Z,733.85
2017-03-09T06:18:09.665Z,733.79
2017-03-09T06:19:09.649Z,733.58
2017-03-09T06:20:09.631Z,733.85
2017-03-09T06:21:09.613Z,733.91
2017-03-09T06:22:09.595Z,733.65
2017-03-09T06:23:09.578Z,733.54
2017-03-09T06:24:09.556Z,733.81
2017-03-09T06:25:09.536Z,733.79
2017-03-09T06:26:09.518Z,733.88
2017-03-09T06:27:09.499Z,733.84
2017-03-09T06:28:09.485Z,733.9
2017-03-09T06:29:09.466Z,733.87
2017-03-09T06:30:09.443Z,733.89
2017-03-09T06:31:09.425Z,733.92
2017-03-09T06:32:09.411Z,733.9
2017-03-09T06:33:09.387Z,733.87
2017-03-09T06:34:09.369Z,734
2017-03-09T06:35:09.355Z,733.92
2017-03-09T06:36:09.333Z,734.06
2017-03-09T06:37:09.313Z,734
2017-03-09T06:38:09.294Z,733.92
2017-03-09T06:39:09.277Z,733.88
2017-03-09T06:40:09.260Z,733.76
2017-03-09T06:41:09.244Z,734.01
2017-03-09T06:42:09.223Z,734.12
2017-03-09T06:43:09.206Z,733.96
2017-03-09T06:44:09.185Z,734.03
2017-03-09T06:45:09.167Z,734.12
2017-03-09T06:46:09.153Z,734.08
2017-03-09T06:47:09.131Z,734.24
2017-03-09T06:48:09.116Z,734.14
2017-03-09T06:49:09.093Z,734.01
2017-03-09T06:50:09.076Z,733.86
2017-03-09T06:51:09.085Z,733.56
2017-03-09T06:52:09.240Z,734
2017-03-09T06:53:09.024Z,733.9
2017-03-09T06:54:09.007Z,733.88
2017-03-09T06:55:08.983Z,734.11
2017-03-09T06:56:08.971Z,733.93
2017-03-09T06:57:08.951Z,734.08
2017-03-09T06:58:08.929Z,734.05
2017-03-09T06:59:08.913Z,733.98
2017-03-09T07:00:08.895Z,733.94
2017-03-09T07:01:08.878Z,733.98
2017-03-09T07:02:08.857Z,733.93
2017-03-09T07:03:08.836Z,733.9
2017-03-09T07:04:08.820Z,733.83
2017-03-09T07:05:08.800Z,733.88
2017-03-09T07:06:08.782Z,734.07
2017-03-09T07:07:08.763Z,733.93
2017-03-09T07:08:08.749Z,733.99
2017-03-09T07:09:08.727Z,733.88
2017-03-09T07:10:08.709Z,733.83
2017-03-09T07:11:08.694Z,733.81
2017-03-09T07:12:08.673Z,733.64
2017-03-09T07:13:08.654Z,733.82
2017-03-09T07:14:08.635Z,733.93
2017-03-09T07:15:08.621Z,733.81
2017-03-09T07:16:08.603Z,733.84
2017-03-09T07:17:08.580Z,733.64
2017-03-09T07:18:08.566Z,733.84
2017-03-09T07:19:08.543Z,733.79
2017-03-09T07:20:08.525Z,733.96
2017-03-09T07:21:08.510Z,733.75
2017-03-09T07:22:08.488Z,733.85
2017-03-09T07:23:08.474Z,733.99
2017-03-09T07:24:08.452Z,733.73
2017-03-09T07:25:08.432Z,733.76
2017-03-09T07:26:08.419Z,733.86
2017-03-09T07:27:08.396Z,733.86
2017-03-09T07:28:08.377Z,733.79
2017-03-09T07:29:08.359Z,733.9
2017-03-09T07:30:08.340Z,733.79
2017-03-09T07:31:08.325Z,733.87
2017-03-09T07:32:08.304Z,733.69
2017-03-09T07:33:08.285Z,733.85
2017-03-09T07:34:08.272Z,733.96
2017-03-09T07:35:08.248Z,733.85
2017-03-09T07:36:08.229Z,733.94
2017-03-09T07:37:08.215Z,733.94
2017-03-09T07:38:08.197Z,733.79
2017-03-09T07:39:08.173Z,733.65
2017-03-09T07:40:08.156Z,733.68
2017-03-09T07:41:08.141Z,733.98
2017-03-09T07:42:08.123Z,733.92
2017-03-09T07:43:08.100Z,734.06
2017-03-09T07:44:08.084Z,733.59
2017-03-09T07:45:08.068Z,733.87
2017-03-09T07:46:08.048Z,733.9
2017-03-09T07:47:08.026Z,733.83
2017-03-09T07:48:08.012Z,733.84
2017-03-09T07:49:07.997Z,733.86
2017-03-09T07:50:07.976Z,733.94
2017-03-09T07:51:07.955Z,733.91
2017-03-09T07:52:07.936Z,733.99
2017-03-09T07:53:07.919Z,733.97
2017-03-09T07:54:07.903Z,734.15
2017-03-09T07:55:07.885Z,734.04
2017-03-09T07:56:07.868Z,734.03
2017-03-09T07:57:07.850Z,733.97
2017-03-09T07:58:07.832Z,734.03
2017-03-09T07:59:07.814Z,733.87
2017-03-09T08:00:07.796Z,733.91
2017-03-09T08:01:07.778Z,733.85
2017-03-09T08:02:07.761Z,733.76
2017-03-09T08:03:07.742Z,734
2017-03-09T08:04:07.720Z,734.03
2017-03-09T08:05:07.702Z,733.98
2017-03-09T08:06:07.684Z,733.87
2017-03-09T08:07:07.667Z,734.04
2017-03-09T08:08:07.652Z,733.98
2017-03-09T08:09:07.633Z,734
2017-03-09T08:10:07.617Z,733.91
2017-03-09T08:11:07.596Z,733.83
2017-03-09T08:12:07.581Z,734.07
2017-03-09T08:13:07.564Z,734
2017-03-09T08:14:07.546Z,733.92
2017-03-09T08:15:07.525Z,733.93
2017-03-09T08:16:07.505Z,733.61
2017-03-09T08:17:07.490Z,733.79
2017-03-09T08:18:07.471Z,733.75
2017-03-09T08:19:07.451Z,733.81
2017-03-09T08:20:07.439Z,733.89
2017-03-09T08:21:07.418Z,733.83
2017-03-09T08:22:07.403Z,733.77
2017-03-09T08:23:07.381Z,733.89
2017-03-09T08:24:07.366Z,733.64
2017-03-09T08:25:07.351Z,733.57
2017-03-09T08:26:07.330Z,733.53
2017-03-09T08:27:07.310Z,733.78
2017-03-09T08:28:07.296Z,733.83
2017-03-09T08:29:07.279Z,733.9
2017-03-09T08:30:07.257Z,733.77
2017-03-09T08:31:07.244Z,733.83
2017-03-09T08:32:07.221Z,733.81
2017-03-09T08:33:07.208Z,733.74
2017-03-09T08:34:07.186Z,733.79
2017-03-09T08:35:07.172Z,733.77
2017-03-09T08:36:07.149Z,733.86
2017-03-09T08:37:07.133Z,733.92
2017-03-09T08:40:07.080Z,733.91
2017-03-09T08:41:07.065Z,733.8
2017-03-09T08:42:07.074Z,733.86
2017-03-09T08:43:07.030Z,733.83
2017-03-09T08:44:07.007Z,734.03
2017-03-09T08:45:06.994Z,734.08
2017-03-09T08:46:06.972Z,734.14
2017-03-09T08:47:06.959Z,733.85
2017-03-09T08:48:06.943Z,733.8
2017-03-09T08:49:06.919Z,733.84
2017-03-09T08:50:06.902Z,733.64
2017-03-09T08:51:06.888Z,733.96
2017-03-09T08:52:06.866Z,734.08
2017-03-09T08:53:06.853Z,734.05
2017-03-09T08:54:06.835Z,733.97
2017-03-09T08:55:06.814Z,734.13
2017-03-09T08:56:06.796Z,733.82
2017-03-09T08:57:06.783Z,733.97
2017-03-09T08:58:06.766Z,733.88
2017-03-09T08:59:06.748Z,733.89
2017-03-09T09:00:06.726Z,734.02
2017-03-09T09:01:06.715Z,733.9
2017-03-09T09:02:06.692Z,733.95
2017-03-09T09:03:06.674Z,733.81
2017-03-09T09:04:06.661Z,733.88
2017-03-09T09:05:06.640Z,733.94
2017-03-09T09:06:06.627Z,733.9
2017-03-09T09:07:06.610Z,733.81
2017-03-09T09:08:06.593Z,733.95
2017-03-09T09:09:06.574Z,733.86
2017-03-09T09:10:06.554Z,733.92
2017-03-09T09:11:06.541Z,733.93
2017-03-09T09:12:06.524Z,733.76
2017-03-09T09:13:06.503Z,733.86
2017-03-09T09:14:06.486Z,733.98
2017-03-09T09:15:06.468Z,733.79
2017-03-09T09:16:06.453Z,733.9
2017-03-09T09:17:06.439Z,733.9
2017-03-09T09:18:06.421Z,733.98
2017-03-09T09:19:06.400Z,733.91
2017-03-09T09:20:06.388Z,733.91
2017-03-09T09:21:06.367Z,733.91
2017-03-09T09:22:06.350Z,733.98
2017-03-09T09:23:06.332Z,733.97
2017-03-09T09:24:06.317Z,733.95
2017-03-09T09:25:06.299Z,734.01
2017-03-09T09:26:06.282Z,733.98
2017-03-09T09:27:06.270Z,734.04
2017-03-09T09:28:06.250Z,734.07
2017-03-09T09:29:06.237Z,733.92
2017-03-09T09:30:06.216Z,733.94
2017-03-09T09:31:06.205Z,734.01
2017-03-09T09:32:06.182Z,734.05
2017-03-09T09:33:06.167Z,734.06
2017-03-09T09:34:06.150Z,734.06
2017-03-09T09:35:06.136Z,734.04
2017-03-09T09:36:06.117Z,734.03
2017-03-09T09:37:06.101Z,734.13
2017-03-09T09:38:06.089Z,734.12
2017-03-09T09:39:06.072Z,734.17
2017-03-09T09:40:06.054Z,734.09
2017-03-09T09:41:06.035Z,734.13
2017-03-09T09:42:06.023Z,734.08
2017-03-09T09:43:06.001Z,734.01
2017-03-09T09:44:05.985Z,734.03
2017-03-09T09:45:05.973Z,733.99
2017-03-09T09:46:05.955Z,733.97
2017-03-09T09:47:05.939Z,734.06
2017-03-09T09:48:05.919Z,734.11
2017-03-09T09:49:05.902Z,734.16
2017-03-09T09:50:05.887Z,734.15
2017-03-09T09:51:05.869Z,734.09
2017-03-09T09:52:05.855Z,734.05
2017-03-09T09:54:05.828Z,734.2
2017-03-09T09:55:05.807Z,734.1
2017-03-09T09:56:05.788Z,734.05
2017-03-09T09:57:05.776Z,734.12
2017-03-09T09:58:05.758Z,734.1
2017-03-09T09:59:05.744Z,734.15
2017-03-09T10:00:05.728Z,734.17
2017-03-09T10:01:05.713Z,734.08
2017-03-09T10:02:05.692Z,734.13
2017-03-09T10:03:05.675Z,734.21
2017-03-09T10:04:05.660Z,734.23
2017-03-09T10:05:05.647Z,734.12
2017-03-09T10:06:05.627Z,734.23
2017-03-09T10:07:05.615Z,734.2
2017-03-09T10:08:05.596Z,734.24
2017-03-09T10:09:05.584Z,734.18
2017-03-09T10:10:05.567Z,734.13
2017-03-09T10:11:05.549Z,734.08
2017-03-09T10:12:05.534Z,734.14
2017-03-09T10:13:05.521Z,734.11
2017-03-09T10:14:05.503Z,734.05
2017-03-09T10:15:05.488Z,734.15
2017-03-09T10:16:05.471Z,734.18
2017-03-09T10:17:05.461Z,734.13
2017-03-09T10:18:05.441Z,734.05
2017-03-09T10:19:05.426Z,734.16
2017-03-09T10:20:05.412Z,734.12
2017-03-09T10:21:05.398Z,734.2
2017-03-09T10:22:05.383Z,734.19
2017-03-09T10:23:05.363Z,734.13
2017-03-09T10:24:05.348Z,734.17
2017-03-09T10:25:05.336Z,734.16
2017-03-09T10:26:05.320Z,734.23
2017-03-09T10:27:05.299Z,734.15
2017-03-09T10:28:05.287Z,734.38
2017-03-09T10:29:05.268Z,734.17
2017-03-09T10:30:05.255Z,734.21
2017-03-09T10:31:05.236Z,734.18
2017-03-09T10:32:05.225Z,734.19
2017-03-09T10:33:05.208Z,734.26
2017-03-09T10:34:05.188Z,734.26
2017-03-09T10:35:05.171Z,734.26
2017-03-09T10:36:05.159Z,734.24
2017-03-09T10:37:05.139Z,734.21
2017-03-09T10:38:05.122Z,734.28
2017-03-09T10:39:05.110Z,734.22
2017-03-09T10:40:05.094Z,734.34
2017-03-09T10:41:05.078Z,734.36
2017-03-09T10:42:05.057Z,734.37
2017-03-09T10:43:05.041Z,734.3
2017-03-09T10:44:05.029Z,734.38
2017-03-09T10:45:05.013Z,734.37
2017-03-09T10:46:04.992Z,734.34
2017-03-09T10:47:04.977Z,734.4
2017-03-09T10:48:04.963Z,734.42
2017-03-09T10:49:04.947Z,734.3
2017-03-09T10:50:04.931Z,734.35
2017-03-09T10:51:04.911Z,734.36
2017-03-09T10:52:04.895Z,734.27
2017-03-09T10:53:04.884Z,734.36
2017-03-09T10:54:04.862Z,734.2
2017-03-09T10:55:04.850Z,734.35
2017-03-09T10:56:04.830Z,734.3
2017-03-09T10:57:04.816Z,734.25
2017-03-09T10:58:04.800Z,734.26
2017-03-09T10:59:04.779Z,734.23
2017-03-09T11:00:04.766Z,734.26
2017-03-09T11:01:04.744Z,734.25
2017-03-09T11:02:04.731Z,734.23
2017-03-09T11:03:04.711Z,734.23
2017-03-09T11:04:04.698Z,734.26
2017-03-09T11:05:04.681Z,734.19
2017-03-09T11:06:04.662Z,734.17
2017-03-09T11:07:04.644Z,734.11
2017-03-09T11:08:04.633Z,734.19
2017-03-09T11:09:04.618Z,734.22
2017-03-09T11:10:04.599Z,734.22
2017-03-09T11:11:04.582Z,734.27
2017-03-09T11:12:04.564Z,734.25
2017-03-09T11:13:04.549Z,734.36
2017-03-09T11:14:04.533Z,734.19
2017-03-09T11:15:04.511Z,734.06
2017-03-09T11:16:04.499Z,733.98
2017-03-09T11:17:04.483Z,733.92
2017-03-09T11:18:04.465Z,733.97
2017-03-09T11:19:04.448Z,734.05
2017-03-09T11:20:04.432Z,734.13
2017-03-09T11:21:04.412Z,734.13
2017-03-09T11:22:04.393Z,734.1
2017-03-09T11:23:04.380Z,734.26
2017-03-09T11:24:04.364Z,733.97
2017-03-09T11:25:04.343Z,734.01
2017-03-09T11:26:04.329Z,733.91
2017-03-09T11:27:04.313Z,733.99
2017-03-09T11:28:04.292Z,733.99
2017-03-09T11:29:04.274Z,733.82
2017-03-09T11:30:04.259Z,733.97
2017-03-09T11:31:04.241Z,733.9
2017-03-09T11:32:04.228Z,733.88
2017-03-09T11:33:04.211Z,733.82
2017-03-09T11:34:04.190Z,733.75
2017-03-09T11:35:04.173Z,733.85
2017-03-09T11:36:04.157Z,733.78
2017-03-09T11:37:04.140Z,733.65
2017-03-09T11:38:04.123Z,733.71
2017-03-09T11:39:04.111Z,733.67
2017-03-09T11:40:04.097Z,733.69
2017-03-09T11:41:04.077Z,733.61
2017-03-09T11:42:04.061Z,733.54
2017-03-09T11:43:04.041Z,733.62
2017-03-09T11:44:04.027Z,733.7
2017-03-09T11:45:04.007Z,733.64
2017-03-09T11:46:04.020Z,733.56
2017-03-09T11:47:03.979Z,733.6
2017-03-09T11:48:03.958Z,733.45
2017-03-09T11:49:03.945Z,733.42
2017-03-09T11:50:03.928Z,733.55
2017-03-09T11:51:03.907Z,733.43
2017-03-09T11:52:03.891Z,733.53
2017-03-09T11:53:03.875Z,733.53
2017-03-09T11:54:03.862Z,733.59
2017-03-09T11:55:03.840Z,733.47
2017-03-09T11:56:03.823Z,733.42
2017-03-09T11:57:03.809Z,733.46
2017-03-09T11:58:03.789Z,733.72
2017-03-09T11:59:03.774Z,733.71
2017-03-09T12:00:03.753Z,733.81
2017-03-09T12:01:03.739Z,733.68
2017-03-09T12:02:03.716Z,733.62
2017-03-09T12:03:03.703Z,733.56
2017-03-09T12:04:03.682Z,733.64
2017-03-09T12:05:03.667Z,733.7
2017-03-09T12:06:03.646Z,733.55
2017-03-09T12:07:03.633Z,733.37
2017-03-09T12:08:03.611Z,733.83
2017-03-09T12:09:03.598Z,733.74
2017-03-09T12:10:03.579Z,733.86
2017-03-09T12:11:03.562Z,733.54
2017-03-09T12:12:03.540Z,733.47
2017-03-09T12:13:03.526Z,733.22
2017-03-09T12:14:03.508Z,733.28
2017-03-09T12:15:03.491Z,733.09
2017-03-09T12:16:03.469Z,733.41
2017-03-09T12:17:03.454Z,733.5
2017-03-09T12:18:03.437Z,733.34
2017-03-09T12:19:03.419Z,733.32
2017-03-09T12:20:03.401Z,733.41
2017-03-09T12:21:03.379Z,733.42
2017-03-09T12:22:03.361Z,733.43
2017-03-09T12:23:03.344Z,733.42
2017-03-09T12:24:03.326Z,733.34
2017-03-09T12:25:03.313Z,733.47
2017-03-09T12:26:03.291Z,733.38
2017-03-09T12:27:03.273Z,733.41
2017-03-09T12:28:03.259Z,733.3
2017-03-09T12:29:03.237Z,733.43
2017-03-09T12:30:03.219Z,733.4
2017-03-09T12:31:03.205Z,733.45
2017-03-09T12:32:03.183Z,733.53
2017-03-09T12:33:03.165Z,733.49
2017-03-09T12:34:03.151Z,733.44
2017-03-09T12:35:03.127Z,733.44